Time;durP1;ratioP1;P1;durP2;ratioP2;P2;SDS_P1;SDS_P2;PMS_P1;PMS_P2;Temp;Humidity;BMP_temperature;BMP_pressure;BME280_temperature;BME280_humidity;BME280_pressure;Samples;Min_cycle;Max_cycle;Signal;HPM_P1;HPM_P2
2022/08/21 00:02:26;;;;;;;7.95;5.38;;;16.50;99.90;;;;;;5117858;27;20100;-89
2022/08/21 00:04:52;;;;;;;9.43;6.03;;;16.40;99.90;;;;;;5101343;27;20035;-90
2022/08/21 00:07:19;;;;;;;12.77;6.38;;;16.40;99.90;;;;;;5118329;27;20035;-90
2022/08/21 00:09:44;;;;;;;8.97;5.67;;;16.30;99.90;;;;;;5136663;27;20039;-89
2022/08/21 00:12:10;;;;;;;8.80;5.60;;;16.30;99.90;;;;;;5118731;27;20035;-89
2022/08/21 00:14:36;;;;;;;9.10;5.65;;;16.30;99.90;;;;;;5118104;27;20479;-90
2022/08/21 00:17:03;;;;;;;9.57;5.65;;;16.20;99.90;;;;;;5135965;27;20433;-90
2022/08/21 00:19:29;;;;;;;9.80;6.20;;;16.20;99.90;;;;;;5136428;27;20047;-90
2022/08/21 00:21:55;;;;;;;11.07;6.10;;;16.10;99.90;;;;;;5118016;27;20440;-90
2022/08/21 00:24:22;;;;;;;7.57;5.35;;;16.10;99.90;;;;;;5135781;27;20039;-90
2022/08/21 00:26:48;;;;;;;9.60;6.25;;;16.10;99.90;;;;;;5101249;27;20368;-90
2022/08/21 00:29:14;;;;;;;14.25;6.15;;;16.00;99.90;;;;;;5117442;27;20078;-90
2022/08/21 00:31:41;;;;;;;11.43;6.22;;;16.00;99.90;;;;;;5100965;27;20035;-90
2022/08/21 00:34:07;;;;;;;10.52;5.68;;;15.90;99.90;;;;;;5100637;27;20035;-90
2022/08/21 00:36:34;;;;;;;8.80;5.60;;;16.00;99.90;;;;;;5117294;27;20047;-90
2022/08/21 00:39:00;;;;;;;10.90;5.78;;;16.00;99.90;;;;;;5116947;27;20042;-89
2022/08/21 00:41:26;;;;;;;11.07;6.68;;;15.90;99.90;;;;;;5135857;27;20495;-89
2022/08/21 00:43:53;;;;;;;11.15;6.40;;;16.10;99.90;;;;;;5135515;27;20039;-89
2022/08/21 00:46:19;;;;;;;10.38;6.60;;;15.80;99.90;;;;;;5117390;27;20131;-89
2022/08/21 00:48:45;;;;;;;10.40;6.50;;;15.70;99.90;;;;;;5135823;27;20039;-90
2022/08/21 00:51:15;;;;;;;11.82;6.95;;;15.80;99.90;;;;;;5117206;27;20369;-90
2022/08/21 00:53:44;;;;;;;11.50;7.28;;;15.70;99.90;;;;;;5135810;27;20043;-90
2022/08/21 00:56:12;;;;;;;13.02;6.43;;;15.80;99.90;;;;;;5117306;27;20043;-90
2022/08/21 00:58:39;;;;;;;9.73;6.40;;;15.60;99.90;;;;;;5116971;27;20043;-90
2022/08/21 01:01:05;;;;;;;;;;;15.60;99.90;;;;;;5101544;27;20522;-90
2022/08/21 01:03:32;;;;;;;11.40;6.45;;;15.60;99.90;;;;;;5137068;27;19915;-90
2022/08/21 01:05:57;;;;;;;11.18;6.22;;;15.60;99.90;;;;;;5105231;27;20441;-89
2022/08/21 01:08:24;;;;;;;10.07;6.53;;;15.50;99.90;;;;;;5141947;27;20047;-89
2022/08/21 01:10:51;;;;;;;12.63;7.07;;;15.50;99.90;;;;;;5143772;27;20061;-90
2022/08/21 01:13:19;;;;;;;8.95;7.18;;;15.50;99.90;;;;;;5156943;27;20038;-90
2022/08/21 01:15:48;;;;;;;12.50;6.97;;;15.40;99.90;;;;;;5142436;27;20035;-90
2022/08/21 01:18:15;;;;;;;14.65;7.15;;;15.40;99.90;;;;;;5142516;27;20043;-90
2022/08/21 01:21:04;;;;;;;12.10;7.68;;;15.50;99.90;;;;;;5159711;27;20046;-90
2022/08/21 01:23:30;;;;;;;10.93;7.07;;;15.40;99.90;;;;;;5130420;27;20506;-90
2022/08/21 01:25:56;;;;;;;9.38;6.43;;;15.40;99.90;;;;;;5125379;27;20035;-89
2022/08/21 01:28:22;;;;;;;11.60;7.13;;;15.40;99.90;;;;;;5117310;27;20129;-90
2022/08/21 01:30:51;;;;;;;10.73;7.57;;;15.40;99.90;;;;;;5135703;27;20039;-89
2022/08/21 01:33:19;;;;;;;10.73;7.07;;;15.30;99.90;;;;;;5135246;27;20043;-90
2022/08/21 01:35:45;;;;;;;11.95;7.30;;;15.30;99.90;;;;;;5116936;27;20050;-90
2022/08/21 01:38:11;;;;;;;11.50;7.15;;;15.30;99.90;;;;;;5135125;27;20039;-89
2022/08/21 01:40:37;;;;;;;8.98;7.10;;;15.50;99.90;;;;;;5134730;27;20108;-89
2022/08/21 01:43:03;;;;;;;12.13;7.28;;;15.20;99.90;;;;;;5115968;27;20047;-89
2022/08/21 01:45:30;;;;;;;14.05;7.97;;;;;;;;;;5134518;27;20339;-90
2022/08/21 01:47:55;;;;;;;7.93;6.97;;;15.20;99.90;;;;;;5134914;27;20046;-89
2022/08/21 01:50:21;;;;;;;12.52;7.28;;;15.20;99.90;;;;;;5134594;27;20040;-89
2022/08/21 01:52:48;;;;;;;10.43;7.18;;;15.20;99.90;;;;;;5116436;27;20083;-89
2022/08/21 01:55:17;;;;;;;11.68;7.43;;;15.10;99.90;;;;;;5115930;27;20042;-89
2022/08/21 01:57:44;;;;;;;8.52;6.78;;;15.10;99.90;;;;;;5115356;27;20528;-90
2022/08/21 02:00:13;;;;;;;13.07;7.50;;;15.10;99.90;;;;;;5115975;27;20056;-89
2022/08/21 02:02:40;;;;;;;13.07;6.75;;;15.10;99.90;;;;;;5098761;27;20055;-89
2022/08/21 02:05:07;;;;;;;;;;;15.00;99.90;;;;;;5115871;27;20039;-90
2022/08/21 02:07:42;;;;;;;10.25;6.13;;;15.00;99.90;;;;;;5115652;27;19920;-89
2022/08/21 02:10:09;;;;;;;9.55;7.22;;;15.00;99.90;;;;;;5134122;27;20049;-89
2022/08/21 02:12:35;;;;;;;8.07;6.57;;;15.00;99.90;;;;;;5098089;27;20479;-89
2022/08/21 02:15:02;;;;;;;9.77;6.15;;;15.00;99.90;;;;;;5115392;27;20049;-89
2022/08/21 02:17:36;;;;;;;10.13;7.50;;;15.00;99.90;;;;;;5115372;27;20053;-89
2022/08/21 02:20:01;;;;;;;10.23;6.57;;;15.00;99.90;;;;;;5115531;27;20046;-89
2022/08/21 02:22:27;;;;;;;9.77;6.38;;;14.90;99.90;;;;;;5098097;27;20043;-89
2022/08/21 02:24:53;;;;;;;11.18;7.05;;;15.00;99.90;;;;;;5115419;27;20096;-89
2022/08/21 02:27:18;;;;;;;11.52;6.70;;;15.00;99.90;;;;;;5114818;27;20050;-89
2022/08/21 02:29:44;;;;;;;10.10;7.50;;;14.90;99.90;;;;;;5098438;27;20126;-89
2022/08/21 02:32:10;;;;;;;13.60;7.40;;;14.90;99.90;;;;;;5098614;27;20050;-89
2022/08/21 02:34:35;;;;;;;12.30;7.70;;;14.90;99.90;;;;;;5133230;27;20487;-89
2022/08/21 02:37:01;;;;;;;9.82;7.22;;;14.80;99.90;;;;;;5098065;27;20289;-89
2022/08/21 02:39:26;;;;;;;10.75;7.63;;;14.80;99.90;;;;;;5114642;27;20065;-89
2022/08/21 02:41:52;;;;;;;11.52;7.82;;;14.80;99.90;;;;;;5097341;27;20403;-89
2022/08/21 02:44:17;;;;;;;11.15;8.27;;;14.80;99.90;;;;;;5115292;27;20043;-89
2022/08/21 02:46:43;;;;;;;8.00;6.93;;;14.80;99.90;;;;;;5133409;27;20043;-90
2022/08/21 02:49:08;;;;;;;15.15;8.30;;;14.80;99.90;;;;;;5115045;27;20047;-89
2022/08/21 02:51:34;;;;;;;11.25;7.95;;;14.70;99.90;;;;;;5114951;27;20504;-89
2022/08/21 02:53:59;;;;;;;11.45;8.45;;;14.70;99.90;;;;;;5097745;27;20047;-89
2022/08/21 02:56:25;;;;;;;12.88;8.73;;;14.70;99.90;;;;;;5132478;27;20118;-89
2022/08/21 02:58:52;;;;;;;11.45;8.45;;;14.70;99.90;;;;;;5097716;27;20410;-89
2022/08/21 03:01:19;;;;;;;10.65;8.13;;;14.70;99.90;;;;;;5114895;27;20065;-89
2022/08/21 03:03:47;;;;;;;9.32;8.30;;;14.60;99.90;;;;;;5133262;27;20039;-90
2022/08/21 03:06:14;;;;;;;9.60;8.60;;;14.70;99.90;;;;;;5097733;27;20035;-89
2022/08/21 03:08:40;;;;;;;11.95;8.82;;;14.60;99.90;;;;;;5114516;27;20421;-89
2022/08/21 03:11:06;;;;;;;10.93;8.55;;;14.60;99.90;;;;;;5097122;27;20050;-89
2022/08/21 03:13:32;;;;;;;10.55;8.43;;;14.60;99.90;;;;;;5133133;27;20032;-89
2022/08/21 03:15:57;;;;;;;13.43;8.07;;;14.60;99.90;;;;;;5097862;27;20068;-89
2022/08/21 03:18:23;;;;;;;11.80;8.23;;;14.60;99.90;;;;;;5114433;27;20487;-89
2022/08/21 03:20:49;;;;;;;11.95;8.30;;;14.60;99.90;;;;;;5114610;27;20035;-89
2022/08/21 03:23:17;;;;;;;12.02;8.52;;;14.50;99.90;;;;;;5132586;27;20035;-89
2022/08/21 03:25:43;;;;;;;10.88;7.57;;;14.50;99.90;;;;;;5114576;27;20099;-89
2022/08/21 03:28:12;;;;;;;10.40;7.75;;;14.50;99.90;;;;;;5114693;27;20046;-89
2022/08/21 03:30:38;;;;;;;10.60;8.05;;;14.50;99.90;;;;;;5097478;27;20039;-89
2022/08/21 03:33:03;;;;;;;9.93;8.30;;;14.50;99.90;;;;;;5114447;28;20047;-89
2022/08/21 03:35:29;;;;;;;12.10;7.78;;;14.40;99.90;;;;;;5114294;28;20046;-89
2022/08/21 03:37:55;;;;;;;10.05;7.75;;;14.40;99.90;;;;;;5132212;28;20472;-89
2022/08/21 03:40:24;;;;;;;9.25;7.32;;;14.40;99.90;;;;;;5113789;28;20056;-89
2022/08/21 03:42:51;;;;;;;12.23;8.02;;;14.40;99.90;;;;;;5114367;28;20047;-89
2022/08/21 03:45:18;;;;;;;9.75;7.82;;;14.40;99.90;;;;;;5097672;28;20179;-89
2022/08/21 03:47:56;;;;;;;10.50;7.28;;;14.40;99.90;;;;;;5097367;28;20051;-90
2022/08/21 03:50:23;;;;;;;10.50;8.15;;;14.40;99.90;;;;;;5114364;28;20121;-89
2022/08/21 03:52:49;;;;;;;9.88;8.05;;;14.40;99.90;;;;;;5114426;28;20035;-90
2022/08/21 03:55:15;;;;;;;11.93;7.50;;;14.40;99.90;;;;;;5132749;28;20035;-89
2022/08/21 03:57:40;;;;;;;8.88;7.45;;;14.30;99.90;;;;;;5132486;28;20405;-90
2022/08/21 04:00:09;;;;;;;11.23;8.07;;;14.40;99.90;;;;;;5114537;28;20067;-89
2022/08/21 04:02:35;;;;;;;11.55;7.88;;;14.30;99.90;;;;;;5133204;28;20114;-89
2022/08/21 04:05:01;;;;;;;13.90;8.18;;;14.30;99.90;;;;;;5097010;28;20081;-89
2022/08/21 04:07:27;;;;;;;9.90;8.00;;;14.30;99.90;;;;;;5096658;28;20039;-89
2022/08/21 04:09:52;;;;;;;12.90;8.20;;;14.30;99.90;;;;;;5114306;28;20050;-90
2022/08/21 04:12:19;;;;;;;10.40;7.90;;;14.30;99.90;;;;;;5114563;28;20074;-89
2022/08/21 04:14:44;;;;;;;12.00;8.18;;;14.30;99.90;;;;;;5115806;28;20047;-90
2022/08/21 04:17:10;;;;;;;8.82;7.93;;;14.20;99.90;;;;;;5097744;28;20463;-89
2022/08/21 04:19:35;;;;;;;9.77;7.80;;;14.20;99.90;;;;;;5114353;28;20051;-89
2022/08/21 04:22:01;;;;;;;12.60;8.82;;;14.20;99.90;;;;;;5132611;28;20448;-90
2022/08/21 04:24:26;;;;;;;9.75;7.97;;;14.20;99.90;;;;;;5097624;28;20039;-90
2022/08/21 04:26:52;;;;;;;11.68;7.65;;;14.30;99.90;;;;;;5116026;27;20036;-90
2022/08/21 04:29:17;;;;;;;11.55;8.07;;;14.30;99.90;;;;;;5101530;27;20043;-90
2022/08/21 04:31:46;;;;;;;10.07;8.05;;;14.00;99.90;;;;;;5119028;27;20045;-89
2022/08/21 04:34:12;;;;;;;9.05;7.97;;;14.10;99.90;;;;;;5101444;27;20075;-90
2022/08/21 04:36:37;;;;;;;10.40;7.72;;;14.20;99.90;;;;;;5118764;27;20035;-89
2022/08/21 04:39:03;;;;;;;11.82;7.68;;;14.20;99.90;;;;;;5118626;27;20058;-89
2022/08/21 04:41:29;;;;;;;10.95;7.57;;;14.50;99.90;;;;;;5118595;27;20062;-89
2022/08/21 04:43:55;;;;;;;12.55;7.85;;;14.20;99.90;;;;;;5123189;27;20071;-90
2022/08/21 04:46:22;;;;;;;12.60;7.47;;;14.30;99.90;;;;;;5142991;27;20411;-89
2022/08/21 04:48:48;;;;;;;9.38;7.38;;;14.30;99.90;;;;;;5100874;27;20494;-90
2022/08/21 04:51:23;;;;;;;8.52;6.55;;;14.30;99.90;;;;;;5117143;27;20055;-90
2022/08/21 04:53:52;;;;;;;10.13;7.05;;;14.30;99.90;;;;;;5100407;27;20043;-89
2022/08/21 04:56:26;;;;;;;11.57;7.43;;;14.40;99.90;;;;;;5117384;27;20537;-90
2022/08/21 04:58:54;;;;;;;9.70;7.15;;;14.40;99.90;;;;;;5135981;27;20055;-90
2022/08/21 05:01:23;;;;;;;10.57;7.40;;;14.50;99.90;;;;;;5117152;27;20039;-89
2022/08/21 05:03:52;;;;;;;8.25;7.15;;;14.50;99.90;;;;;;5117580;27;20039;-90
2022/08/21 05:06:18;;;;;;;10.88;7.50;;;14.60;99.90;;;;;;5116654;27;20054;-90
2022/08/21 05:08:46;;;;;;;9.95;6.95;;;14.60;99.90;;;;;;5100636;27;20051;-89
2022/08/21 05:11:12;;;;;;;10.23;7.03;;;14.70;99.90;;;;;;5117278;27;20099;-90
2022/08/21 05:13:41;;;;;;;11.00;7.07;;;14.70;99.90;;;;;;5135518;27;20087;-90
2022/08/21 05:16:07;;;;;;;8.77;7.10;;;14.80;99.90;;;;;;5135359;27;20035;-90
2022/08/21 05:18:32;;;;;;;8.93;7.13;;;14.90;99.90;;;;;;5135242;27;20445;-90
2022/08/21 05:20:58;;;;;;;7.75;6.30;;;14.90;99.90;;;;;;5134987;27;20045;-90
2022/08/21 05:23:24;;;;;;;9.32;7.20;;;15.00;99.90;;;;;;5117028;27;20046;-90
2022/08/21 05:25:52;;;;;;;13.65;7.13;;;15.10;99.90;;;;;;5116867;27;20235;-89
2022/08/21 05:28:17;;;;;;;8.82;6.53;;;15.10;99.90;;;;;;5116712;27;20476;-90
2022/08/21 05:30:43;;;;;;;7.43;6.55;;;15.20;99.90;;;;;;5135832;27;20079;-90
2022/08/21 05:33:09;;;;;;;10.23;6.78;;;15.30;99.90;;;;;;5118128;27;20039;-90
2022/08/21 05:35:35;;;;;;;10.90;7.13;;;15.40;99.90;;;;;;5117118;27;20040;-90
2022/08/21 05:38:01;;;;;;;10.45;7.32;;;15.50;99.90;;;;;;5100354;27;20039;-89
2022/08/21 05:40:27;;;;;;;10.88;7.43;;;15.60;99.90;;;;;;5099705;27;20122;-90
2022/08/21 05:42:54;;;;;;;9.35;6.95;;;15.70;99.90;;;;;;5116700;27;20135;-89
2022/08/21 05:45:21;;;;;;;10.75;7.07;;;16.40;99.90;;;;;;5116594;27;20046;-90
2022/08/21 05:47:46;;;;;;;11.93;7.53;;;17.50;99.90;;;;;;5116514;27;20067;-90
2022/08/21 05:50:12;;;;;;;9.82;6.22;;;18.50;99.90;;;;;;5116317;27;20081;-90
2022/08/21 05:52:38;;;;;;;7.75;6.22;;;19.50;99.90;;;;;;5134748;27;20046;-90
2022/08/21 05:55:04;;;;;;;9.85;6.22;;;20.30;99.90;;;;;;5134640;27;20047;-90
2022/08/21 05:57:30;;;;;;;7.40;6.07;;;20.80;99.90;;;;;;5134514;27;20422;-90
2022/08/21 05:59:55;;;;;;;8.40;5.78;;;21.50;99.90;;;;;;5134776;27;20038;-90
2022/08/21 06:02:22;;;;;;;6.07;5.47;;;22.10;99.90;;;;;;5116420;27;20396;-90
2022/08/21 06:04:48;;;;;;;7.13;5.97;;;22.50;99.90;;;;;;5134294;27;20071;-90
2022/08/21 06:07:14;;;;;;;11.35;5.80;;;23.00;99.90;;;;;;5115729;27;20050;-91
2022/08/21 06:09:40;;;;;;;11.07;5.40;;;23.40;99.90;;;;;;5134220;27;20122;-88
2022/08/21 06:12:08;;;;;;;9.85;5.50;;;23.70;99.90;;;;;;5134149;27;20073;-88
2022/08/21 06:14:38;;;;;;;11.13;5.00;;;24.10;99.90;;;;;;5115640;27;20046;-88
2022/08/21 06:17:05;;;;;;;;;;;24.40;99.90;;;;;;5134763;27;20057;-88
2022/08/21 06:19:30;;;;;;;8.60;4.83;;;24.80;99.90;;;;;;5115436;27;19920;-88
2022/08/21 06:21:56;;;;;;;7.35;4.80;;;24.90;99.90;;;;;;5098501;27;20288;-88
2022/08/21 06:24:22;;;;;;;6.88;4.65;;;25.20;99.90;;;;;;5116003;27;20051;-88
2022/08/21 06:26:47;;;;;;;6.78;4.85;;;25.30;99.90;;;;;;5115525;27;20039;-89
2022/08/21 06:29:16;;;;;;;7.88;5.38;;;25.60;99.90;;;;;;5134261;27;20468;-88
2022/08/21 06:31:43;;;;;;;7.35;4.40;;;25.80;99.90;;;;;;5115752;27;20051;-89
2022/08/21 06:34:09;;;;;;;5.35;4.68;;;25.90;99.90;;;;;;5115921;27;20039;-88
2022/08/21 06:36:35;;;;;;;8.77;4.72;;;26.00;99.90;;;;;;5133960;27;20126;-89
2022/08/21 06:39:01;;;;;;;7.90;4.47;;;26.30;99.90;;;;;;5115248;27;20075;-89
2022/08/21 06:41:26;;;;;;;5.97;4.25;;;26.40;99.90;;;;;;5133839;27;20076;-88
2022/08/21 06:43:53;;;;;;;6.00;3.95;;;26.60;99.90;;;;;;5115361;27;20092;-88
2022/08/21 06:46:19;;;;;;;5.68;4.03;;;27.00;99.70;;;;;;5097664;27;20046;-89
2022/08/21 06:48:44;;;;;;;4.80;3.75;;;27.10;99.90;;;;;;5133290;27;20047;-89
2022/08/21 06:51:10;;;;;;;7.20;4.40;;;27.10;99.80;;;;;;5098547;27;20035;-89
2022/08/21 06:53:35;;;;;;;7.40;4.35;;;27.30;99.00;;;;;;5115231;27;20484;-89
2022/08/21 06:56:01;;;;;;;8.75;4.30;;;27.40;98.50;;;;;;5098196;27;20087;-88
2022/08/21 06:58:27;;;;;;;8.10;4.00;;;27.50;98.40;;;;;;5115051;27;20075;-89
2022/08/21 07:00:53;;;;;;;6.22;4.25;;;27.70;98.80;;;;;;5133269;27;20172;-89
2022/08/21 07:03:22;;;;;;;8.90;4.18;;;27.30;97.30;;;;;;5115316;27;20050;-89
2022/08/21 07:05:48;;;;;;;5.35;3.83;;;27.90;96.40;;;;;;5115024;27;20134;-89
2022/08/21 07:08:13;;;;;;;7.15;3.45;;;27.90;97.40;;;;;;5115213;27;20319;-89
2022/08/21 07:10:39;;;;;;;5.90;4.10;;;27.60;96.90;;;;;;5114690;27;20039;-89
2022/08/21 07:13:04;;;;;;;5.53;3.80;;;27.70;97.00;;;;;;5133576;27;20039;-89
2022/08/21 07:15:30;;;;;;;8.77;3.85;;;27.90;97.10;;;;;;5097841;27;20403;-88
2022/08/21 07:17:57;;;;;;;7.72;3.72;;;27.90;97.20;;;;;;5133311;27;20039;-89
2022/08/21 07:20:23;;;;;;;;;;;27.90;96.70;;;;;;5133736;27;20078;-88
2022/08/21 07:22:48;;;;;;;7.22;3.65;;;27.70;95.90;;;;;;5098282;27;19966;-89
2022/08/21 07:25:14;;;;;;;7.63;4.07;;;27.70;94.60;;;;;;5134195;27;20039;-89
2022/08/21 07:27:40;;;;;;;5.05;3.72;;;27.50;96.20;;;;;;5116452;27;20463;-89
2022/08/21 07:30:06;;;;;;;5.90;3.65;;;27.00;96.50;;;;;;5136838;27;20523;-89
2022/08/21 07:32:32;;;;;;;5.85;3.28;;;26.40;96.60;;;;;;5122435;27;20045;-89
2022/08/21 07:34:58;;;;;;;9.38;4.03;;;25.70;97.30;;;;;;5124979;27;20349;-89
2022/08/21 07:37:24;;;;;;;7.38;3.80;;;25.30;97.70;;;;;;5108052;28;20031;-89
2022/08/21 07:39:50;;;;;;;6.35;3.63;;;24.70;98.00;;;;;;5121750;27;20031;-89
2022/08/21 07:42:17;;;;;;;6.80;3.50;;;24.20;99.10;;;;;;5140423;28;20024;-89
2022/08/21 07:44:42;;;;;;;7.85;4.03;;;24.00;99.90;;;;;;5140126;27;20086;-89
2022/08/21 07:47:08;;;;;;;6.30;3.65;;;23.60;99.90;;;;;;5153162;27;20069;-89
2022/08/21 07:49:34;;;;;;;5.43;3.60;;;23.40;99.90;;;;;;5116884;28;20051;-89
2022/08/21 07:51:59;;;;;;;6.43;3.90;;;23.20;99.90;;;;;;5133797;28;20074;-89
2022/08/21 07:54:26;;;;;;;8.60;4.35;;;22.80;99.90;;;;;;5115168;28;20149;-91
2022/08/21 07:56:51;;;;;;;10.73;3.50;;;23.00;99.90;;;;;;5115106;28;20039;-89
2022/08/21 07:59:17;;;;;;;8.00;3.90;;;22.80;99.90;;;;;;5114620;28;20092;-89
2022/08/21 08:01:42;;;;;;;10.23;3.85;;;22.90;99.90;;;;;;5116107;27;20100;-89
2022/08/21 08:04:08;;;;;;;8.65;3.40;;;22.60;99.90;;;;;;5119160;27;20039;-89
2022/08/21 08:06:34;;;;;;;7.80;3.63;;;22.80;99.90;;;;;;5108441;27;20046;-89
2022/08/21 08:09:03;;;;;;;8.80;3.38;;;23.00;99.90;;;;;;5122515;27;20035;-90
2022/08/21 08:11:29;;;;;;;7.65;3.22;;;23.00;99.90;;;;;;5118760;27;20501;-89
2022/08/21 08:13:57;;;;;;;7.32;3.17;;;23.00;99.90;;;;;;5118410;27;20042;-89
2022/08/21 08:16:22;;;;;;;4.63;3.13;;;23.00;99.90;;;;;;5118748;27;20602;-89
2022/08/21 08:18:51;;;;;;;9.40;3.80;;;23.10;99.90;;;;;;5101638;27;20078;-89
2022/08/21 08:21:20;;;;;;;6.97;3.00;;;23.10;99.90;;;;;;5118380;27;20098;-90
2022/08/21 08:23:46;;;;;;;7.82;3.40;;;23.30;99.90;;;;;;5118245;27;20043;-89
2022/08/21 08:26:12;;;;;;;5.32;3.05;;;23.30;99.90;;;;;;5118749;27;20073;-89
2022/08/21 08:28:37;;;;;;;6.18;2.78;;;23.40;99.90;;;;;;5136724;27;20043;-89
2022/08/21 08:31:03;;;;;;;4.70;2.80;;;23.40;99.90;;;;;;5118566;27;20074;-88
2022/08/21 08:33:29;;;;;;;7.13;3.00;;;23.50;99.90;;;;;;5118454;27;20451;-89
2022/08/21 08:35:55;;;;;;;6.43;2.80;;;23.40;99.90;;;;;;5101304;27;20035;-89
2022/08/21 08:38:25;;;;;;;7.05;3.00;;;23.50;99.90;;;;;;5118126;27;20083;-89
2022/08/21 08:41:12;;;;;;;6.30;2.63;;;23.60;99.90;;;;;;5117985;27;20560;-89
2022/08/21 08:43:39;;;;;;;;;;;23.70;99.90;;;;;;5118809;27;20043;-89
2022/08/21 08:46:12;;;;;;;6.85;3.28;;;23.70;99.90;;;;;;5118600;27;19923;-89
2022/08/21 08:48:55;;;;;;;7.53;3.42;;;23.70;99.90;;;;;;5118104;27;20432;-89
2022/08/21 08:51:43;;;;;;;8.05;3.25;;;23.70;99.90;;;;;;5136466;27;20503;-89
2022/08/21 08:54:13;;;;;;;4.82;2.70;;;23.50;99.90;;;;;;5117900;27;20433;-89
2022/08/21 08:56:39;;;;;;;7.43;3.00;;;23.70;99.90;;;;;;5100334;27;20092;-89
2022/08/21 08:59:27;;;;;;;7.93;3.40;;;23.60;99.90;;;;;;5135688;27;20486;-90
2022/08/21 09:01:53;;;;;;;5.93;2.85;;;23.60;99.90;;;;;;5117260;27;20046;-89
2022/08/21 09:04:23;;;;;;;4.78;2.72;;;23.50;99.90;;;;;;5117334;27;20050;-89
2022/08/21 09:06:49;;;;;;;6.65;3.25;;;23.50;99.90;;;;;;5117155;27;20039;-89
2022/08/21 09:09:33;;;;;;;7.40;3.25;;;23.30;99.90;;;;;;5135478;27;20031;-89
2022/08/21 09:12:05;;;;;;;5.20;2.88;;;23.60;99.90;;;;;;5099588;27;20507;-89
2022/08/21 09:15:01;;;;;;;5.50;2.88;;;23.70;99.90;;;;;;5100144;27;20083;-89
2022/08/21 09:17:36;;;;;;;6.65;2.80;;;23.70;99.90;;;;;;5135828;27;20043;-90
2022/08/21 09:20:11;;;;;;;6.00;2.63;;;23.70;99.90;;;;;;5117301;27;20396;-89
2022/08/21 09:23:06;;;;;;;6.88;3.00;;;23.80;99.90;;;;;;5117040;27;20079;-89
2022/08/21 09:25:42;;;;;;;5.28;3.00;;;23.70;99.90;;;;;;5100512;27;20046;-89
2022/08/21 09:28:12;;;;;;;7.15;2.90;;;23.60;99.90;;;;;;5116890;27;20095;-89
2022/08/21 09:30:40;;;;;;;5.20;2.33;;;23.40;99.90;;;;;;5100562;27;20043;-89
2022/08/21 09:33:06;;;;;;;4.93;2.75;;;23.80;99.90;;;;;;5117032;27;20533;-89
2022/08/21 09:35:34;;;;;;;10.25;2.70;;;23.70;99.90;;;;;;5117296;27;20040;-89
2022/08/21 09:38:07;;;;;;;10.40;2.50;;;23.50;99.90;;;;;;5117042;27;20054;-90
2022/08/21 09:40:46;;;;;;;7.32;2.80;;;23.90;99.90;;;;;;5112640;28;20123;-89
2022/08/21 09:43:11;;;;;;;5.63;2.53;;;24.00;99.90;;;;;;5113596;28;20060;-89
2022/08/21 09:45:38;;;;;;;5.10;2.60;;;23.90;99.90;;;;;;5113683;28;20032;-89
2022/08/21 09:48:08;;;;;;;;;;;24.10;99.90;;;;;;5113778;28;20048;-90
2022/08/21 09:50:34;;;;;;;5.47;2.90;;;24.20;99.90;;;;;;5096315;28;19978;-89
2022/08/21 09:53:00;;;;;;;4.43;2.50;;;23.70;99.90;;;;;;5114442;28;20404;-89
2022/08/21 09:58:32;;;;;;;7.18;2.45;;;23.60;99.90;;;;;;5113083;28;20385;-89
2022/08/21 10:00:59;;;;;;;7.95;2.10;;;23.90;99.90;;;;;;5113341;28;20104;-89
2022/08/21 10:03:25;;;;;;;6.75;2.65;;;24.20;99.90;;;;;;5114624;28;20081;-90
2022/08/21 10:06:01;;;;;;;8.25;2.38;;;24.30;99.40;;;;;;5113410;28;20067;-89
2022/08/21 10:08:28;;;;;;;6.28;2.53;;;24.50;99.60;;;;;;5095607;28;20079;-89
2022/08/21 10:11:04;;;;;;;6.82;2.20;;;24.60;99.30;;;;;;5113730;28;20047;-89
2022/08/21 10:13:54;;;;;;;7.05;2.63;;;24.80;99.60;;;;;;5112972;28;20050;-89
2022/08/21 10:16:29;;;;;;;6.65;2.10;;;25.00;98.80;;;;;;5112851;28;20085;-90
2022/08/21 10:18:57;;;;;;;5.55;2.30;;;25.10;98.90;;;;;;5113120;28;20427;-89
2022/08/21 10:21:34;;;;;;;5.22;1.95;;;25.40;99.60;;;;;;5112812;28;20389;-89
2022/08/21 10:24:00;;;;;;;5.30;2.00;;;25.50;98.80;;;;;;5113066;28;20039;-89
2022/08/21 10:26:30;;;;;;;8.63;2.20;;;25.50;98.70;;;;;;5113934;28;20067;-89
2022/08/21 10:29:02;;;;;;;7.03;1.98;;;25.10;98.70;;;;;;5095935;28;20395;-90
2022/08/21 10:31:46;;;;;;;5.68;1.80;;;25.20;99.10;;;;;;5112871;28;20039;-89
2022/08/21 10:34:33;;;;;;;9.02;2.50;;;25.30;98.70;;;;;;5112826;28;20066;-89
2022/08/21 10:37:11;;;;;;;;;;;25.20;98.10;;;;;;5096111;28;20134;-89
2022/08/21 10:40:15;;;;;;;4.43;1.58;;;25.30;97.50;;;;;;5114872;27;19920;-89
2022/08/21 10:43:01;;;;;;;4.68;1.77;;;25.20;97.30;;;;;;5098874;27;20043;-89
2022/08/21 10:45:32;;;;;;;5.97;2.00;;;25.10;98.00;;;;;;5098942;27;20043;-89
2022/08/21 10:48:06;;;;;;;6.07;2.33;;;25.20;98.90;;;;;;5115722;27;20043;-89
2022/08/21 10:50:42;;;;;;;7.65;1.98;;;25.40;99.10;;;;;;5115645;27;20548;-90
2022/08/21 10:53:25;;;;;;;6.55;1.60;;;25.40;98.20;;;;;;5133582;27;20035;-89
2022/08/21 10:56:17;;;;;;;7.43;2.10;;;25.40;98.30;;;;;;5133868;27;20122;-88
2022/08/21 10:59:09;;;;;;;6.55;1.88;;;25.50;98.70;;;;;;5129320;27;20070;-90
2022/08/21 11:01:57;;;;;;;5.55;1.80;;;25.50;98.60;;;;;;5115590;27;20039;-89
2022/08/21 11:04:34;;;;;;;6.95;2.10;;;25.70;98.80;;;;;;5098548;27;20499;-89
2022/08/21 11:07:16;;;;;;;4.88;1.80;;;25.70;98.00;;;;;;5115314;27;20031;-89
2022/08/21 11:09:45;;;;;;;4.85;1.70;;;25.80;98.30;;;;;;5115515;27;20501;-89
2022/08/21 11:12:31;;;;;;;6.68;2.50;;;25.40;98.10;;;;;;5115161;27;20117;-90
2022/08/21 11:15:07;;;;;;;4.75;1.70;;;25.40;98.50;;;;;;5098288;27;20066;-90
2022/08/21 11:17:58;;;;;;;5.68;1.40;;;25.20;98.10;;;;;;5114958;27;20169;-89
2022/08/21 11:20:42;;;;;;;5.07;1.65;;;25.30;98.00;;;;;;5091661;27;20051;-89
2022/08/21 11:23:19;;;;;;;3.00;1.30;;;25.60;98.20;;;;;;5097559;27;20480;-89
2022/08/21 11:25:51;;;;;;;6.03;1.73;;;25.90;98.20;;;;;;5133744;27;20046;-89
2022/08/21 11:28:24;;;;;;;4.32;1.40;;;26.00;96.80;;;;;;5098472;27;20734;-90
2022/08/21 11:31:12;;;;;;;6.45;1.83;;;25.90;96.50;;;;;;5118584;27;20057;-90
2022/08/21 11:33:43;;;;;;;4.85;1.73;;;26.00;96.70;;;;;;5119146;28;20054;-90
2022/08/21 11:36:23;;;;;;;6.15;1.70;;;26.30;97.90;;;;;;5097936;27;20168;-90
2022/08/21 11:39:24;;;;;;;6.15;1.73;;;26.40;97.50;;;;;;5132933;27;20118;-90
2022/08/21 11:42:09;;;;;;;4.32;1.52;;;26.40;97.30;;;;;;5127224;28;20051;-90
2022/08/21 11:45:15;;;;;;;7.82;1.83;;;26.40;96.90;;;;;;5114847;28;20090;-89
2022/08/21 11:47:54;;;;;;;4.90;1.67;;;26.20;96.10;;;;;;5133061;28;20071;-90
2022/08/21 11:50:31;;;;;;;4.25;1.83;;;26.50;96.70;;;;;;5115378;28;20121;-91
2022/08/21 11:53:00;;;;;;;4.60;1.50;;;26.50;95.90;;;;;;5133163;28;20061;-90
2022/08/21 11:55:33;;;;;;;4.80;1.88;;;26.70;97.30;;;;;;5133710;28;20117;-90
2022/08/21 11:58:11;;;;;;;4.78;1.42;;;26.80;96.60;;;;;;5115143;28;20113;-90
2022/08/21 12:00:49;;;;;;;5.78;2.05;;;26.80;96.10;;;;;;5097917;28;20045;-90
2022/08/21 12:03:29;;;;;;;6.15;1.50;;;26.90;96.50;;;;;;5115015;28;20411;-90
2022/08/21 12:06:05;;;;;;;4.80;1.65;;;27.10;96.50;;;;;;5132841;28;20051;-90
2022/08/21 12:08:37;;;;;;;2.93;1.50;;;27.00;94.90;;;;;;5114713;28;20035;-90
2022/08/21 12:11:03;;;;;;;4.20;1.60;;;27.00;95.40;;;;;;5098173;28;20319;-90
2022/08/21 12:13:32;;;;;;;4.38;1.50;;;27.00;95.30;;;;;;5133219;28;20548;-89
2022/08/21 12:16:08;;;;;;;5.22;1.60;;;26.90;94.60;;;;;;5097582;28;20193;-90
2022/08/21 12:18:34;;;;;;;3.70;1.17;;;26.90;94.80;;;;;;5114775;28;20606;-90
2022/08/21 12:21:25;;;;;;;8.27;1.70;;;27.10;95.30;;;;;;5114651;28;20054;-90
2022/08/21 12:24:02;;;;;;;3.95;1.33;;;27.00;95.00;;;;;;5133096;28;20134;-90
2022/08/21 12:26:47;;;;;;;3.40;1.23;;;27.10;95.20;;;;;;5097666;28;20093;-90
2022/08/21 12:29:23;;;;;;;4.45;1.38;;;27.30;94.80;;;;;;5114822;28;20050;-90
2022/08/21 12:31:56;;;;;;;4.07;1.15;;;27.30;94.20;;;;;;5097958;28;20563;-90
2022/08/21 12:34:29;;;;;;;3.95;1.38;;;27.30;94.00;;;;;;5097304;28;20046;-90
2022/08/21 12:37:16;;;;;;;4.25;1.52;;;27.30;93.50;;;;;;5114641;28;20506;-90
2022/08/21 12:39:46;;;;;;;4.63;1.45;;;27.40;94.20;;;;;;5097106;28;20073;-91
2022/08/21 12:42:18;;;;;;;4.50;1.33;;;27.60;93.80;;;;;;5114905;28;20104;-91
2022/08/21 12:45:00;;;;;;;4.57;1.63;;;27.60;94.00;;;;;;5097924;28;20039;-91
2022/08/21 12:47:47;;;;;;;4.80;1.25;;;27.50;93.20;;;;;;5098710;27;20043;-90
2022/08/21 12:50:41;;;;;;;4.28;1.60;;;27.40;94.00;;;;;;5117830;27;20047;-90
2022/08/21 12:53:15;;;;;;;5.03;1.33;;;27.00;93.80;;;;;;5117523;27;20058;-90
2022/08/21 12:55:42;;;;;;;3.95;1.40;;;26.90;93.80;;;;;;5118167;27;20084;-90
2022/08/21 12:58:21;;;;;;;4.22;1.60;;;26.70;93.00;;;;;;5136817;27;20429;-90
2022/08/21 13:00:56;;;;;;;3.90;1.20;;;26.80;93.70;;;;;;5136745;27;20043;-90
2022/08/21 13:03:23;;;;;;;3.67;1.60;;;27.20;94.50;;;;;;5100780;27;20174;-91